sensor_id;sensor_type;location;lat;lon;timestamp;temperature;humidity
42755;DHT22;28407;51.830;5.684;2023-07-20T00:01:20;21.20;70.30
42755;DHT22;28407;51.830;5.684;2023-07-20T00:03:21;21.10;70.20
42755;DHT22;28407;51.830;5.684;2023-07-20T00:05:25;21.20;70.30
42755;DHT22;28407;51.830;5.684;2023-07-20T00:07:26;21.10;70.30
42755;DHT22;28407;51.830;5.684;2023-07-20T00:09:27;21.10;70.30
42755;DHT22;28407;51.830;5.684;2023-07-20T00:11:27;21.10;70.40
42755;DHT22;28407;51.830;5.684;2023-07-20T00:13:28;21.10;70.40
42755;DHT22;28407;51.830;5.684;2023-07-20T00:15:29;21.10;70.40
42755;DHT22;28407;51.830;5.684;2023-07-20T00:17:29;21.10;70.50
42755;DHT22;28407;51.830;5.684;2023-07-20T00:19:30;21.10;70.50
42755;DHT22;28407;51.830;5.684;2023-07-20T00:21:32;21.10;70.50
42755;DHT22;28407;51.830;5.684;2023-07-20T00:23:33;21.10;70.50
42755;DHT22;28407;51.830;5.684;2023-07-20T00:25:34;21.10;70.60
42755;DHT22;28407;51.830;5.684;2023-07-20T00:27:34;21.00;70.90
42755;DHT22;28407;51.830;5.684;2023-07-20T00:29:35;21.00;70.60
42755;DHT22;28407;51.830;5.684;2023-07-20T00:31:36;21.00;70.70
42755;DHT22;28407;51.830;5.684;2023-07-20T00:33:37;21.00;70.60
42755;DHT22;28407;51.830;5.684;2023-07-20T00:35:39;21.00;70.70
42755;DHT22;28407;51.830;5.684;2023-07-20T00:37:39;21.00;70.60
42755;DHT22;28407;51.830;5.684;2023-07-20T00:39:40;21.00;70.60
42755;DHT22;28407;51.830;5.684;2023-07-20T00:41:41;21.00;70.70
42755;DHT22;28407;51.830;5.684;2023-07-20T00:43:41;21.00;70.70
42755;DHT22;28407;51.830;5.684;2023-07-20T00:45:43;21.00;70.70
42755;DHT22;28407;51.830;5.684;2023-07-20T00:47:44;21.00;70.70
42755;DHT22;28407;51.830;5.684;2023-07-20T00:49:45;20.90;70.70
42755;DHT22;28407;51.830;5.684;2023-07-20T00:51:47;20.90;70.70
42755;DHT22;28407;51.830;5.684;2023-07-20T00:53:48;20.90;70.70
42755;DHT22;28407;51.830;5.684;2023-07-20T00:55:49;20.90;70.70
42755;DHT22;28407;51.830;5.684;2023-07-20T00:57:50;20.90;70.70
42755;DHT22;28407;51.830;5.684;2023-07-20T00:59:51;20.90;70.70
42755;DHT22;28407;51.830;5.684;2023-07-20T01:01:52;20.80;70.70
42755;DHT22;28407;51.830;5.684;2023-07-20T01:03:53;20.80;70.70
42755;DHT22;28407;51.830;5.684;2023-07-20T01:05:54;20.80;70.70
42755;DHT22;28407;51.830;5.684;2023-07-20T01:08:03;20.80;70.70
42755;DHT22;28407;51.830;5.684;2023-07-20T01:10:14;20.70;70.70
42755;DHT22;28407;51.830;5.684;2023-07-20T01:12:58;20.70;70.70
42755;DHT22;28407;51.830;5.684;2023-07-20T01:14:52;20.70;70.80
42755;DHT22;28407;51.830;5.684;2023-07-20T01:16:53;20.70;70.80
42755;DHT22;28407;51.830;5.684;2023-07-20T01:18:53;20.70;70.90
42755;DHT22;28407;51.830;5.684;2023-07-20T01:20:59;20.60;70.90
42755;DHT22;28407;51.830;5.684;2023-07-20T01:26:07;20.60;70.90
42755;DHT22;28407;51.830;5.684;2023-07-20T01:30:50;20.50;71.00
42755;DHT22;28407;51.830;5.684;2023-07-20T01:32:54;20.50;71.00
42755;DHT22;28407;51.830;5.684;2023-07-20T01:34:56;20.50;71.70
42755;DHT22;28407;51.830;5.684;2023-07-20T01:37:01;20.50;71.10
42755;DHT22;28407;51.830;5.684;2023-07-20T01:39:03;20.50;71.10
42755;DHT22;28407;51.830;5.684;2023-07-20T01:41:05;20.50;71.10
42755;DHT22;28407;51.830;5.684;2023-07-20T01:43:06;20.50;71.10
42755;DHT22;28407;51.830;5.684;2023-07-20T01:45:07;20.50;71.10
42755;DHT22;28407;51.830;5.684;2023-07-20T01:47:08;20.50;71.10
42755;DHT22;28407;51.830;5.684;2023-07-20T01:49:09;20.50;71.10
42755;DHT22;28407;51.830;5.684;2023-07-20T01:51:09;20.50;71.10
42755;DHT22;28407;51.830;5.684;2023-07-20T01:53:10;20.50;71.10
42755;DHT22;28407;51.830;5.684;2023-07-20T01:55:11;20.50;71.10
42755;DHT22;28407;51.830;5.684;2023-07-20T01:57:11;20.50;71.10
42755;DHT22;28407;51.830;5.684;2023-07-20T01:59:12;20.50;71.10
42755;DHT22;28407;51.830;5.684;2023-07-20T02:01:13;20.50;71.10
42755;DHT22;28407;51.830;5.684;2023-07-20T02:03:13;20.50;71.10
42755;DHT22;28407;51.830;5.684;2023-07-20T02:05:14;20.50;71.10
42755;DHT22;28407;51.830;5.684;2023-07-20T02:07:15;20.50;71.20
42755;DHT22;28407;51.830;5.684;2023-07-20T02:09:19;20.50;71.30
42755;DHT22;28407;51.830;5.684;2023-07-20T02:11:20;20.40;71.30
42755;DHT22;28407;51.830;5.684;2023-07-20T02:13:21;20.40;71.20
42755;DHT22;28407;51.830;5.684;2023-07-20T02:15:22;20.40;71.20
42755;DHT22;28407;51.830;5.684;2023-07-20T02:17:23;20.40;71.30
42755;DHT22;28407;51.830;5.684;2023-07-20T02:19:25;20.40;71.30
42755;DHT22;28407;51.830;5.684;2023-07-20T02:21:26;20.40;71.30
42755;DHT22;28407;51.830;5.684;2023-07-20T02:23:26;20.30;71.30
42755;DHT22;28407;51.830;5.684;2023-07-20T02:25:27;20.30;71.30
42755;DHT22;28407;51.830;5.684;2023-07-20T02:27:28;20.30;71.30
42755;DHT22;28407;51.830;5.684;2023-07-20T02:29:28;20.30;71.90
42755;DHT22;28407;51.830;5.684;2023-07-20T02:31:29;20.30;71.30
42755;DHT22;28407;51.830;5.684;2023-07-20T02:33:30;20.30;71.30
42755;DHT22;28407;51.830;5.684;2023-07-20T02:35:30;20.30;71.30
42755;DHT22;28407;51.830;5.684;2023-07-20T02:37:32;20.30;71.30
42755;DHT22;28407;51.830;5.684;2023-07-20T02:39:33;20.30;71.30
42755;DHT22;28407;51.830;5.684;2023-07-20T02:41:34;20.20;71.30
42755;DHT22;28407;51.830;5.684;2023-07-20T02:43:35;20.20;71.30
42755;DHT22;28407;51.830;5.684;2023-07-20T02:45:35;20.20;71.30
42755;DHT22;28407;51.830;5.684;2023-07-20T02:47:40;20.20;71.30
42755;DHT22;28407;51.830;5.684;2023-07-20T02:49:40;20.10;71.20
42755;DHT22;28407;51.830;5.684;2023-07-20T02:51:41;20.10;71.30
42755;DHT22;28407;51.830;5.684;2023-07-20T02:53:42;20.00;71.20
42755;DHT22;28407;51.830;5.684;2023-07-20T02:55:43;20.10;71.30
42755;DHT22;28407;51.830;5.684;2023-07-20T02:57:43;20.00;71.20
42755;DHT22;28407;51.830;5.684;2023-07-20T02:59:44;20.00;71.20
42755;DHT22;28407;51.830;5.684;2023-07-20T03:01:45;19.90;71.20
42755;DHT22;28407;51.830;5.684;2023-07-20T03:03:45;19.90;71.20
42755;DHT22;28407;51.830;5.684;2023-07-20T03:05:47;19.90;71.30
42755;DHT22;28407;51.830;5.684;2023-07-20T03:07:48;19.90;71.30
42755;DHT22;28407;51.830;5.684;2023-07-20T03:09:49;19.90;71.30
42755;DHT22;28407;51.830;5.684;2023-07-20T03:11:50;19.80;71.20
42755;DHT22;28407;51.830;5.684;2023-07-20T03:13:51;19.80;71.20
42755;DHT22;28407;51.830;5.684;2023-07-20T03:15:53;19.80;71.20
42755;DHT22;28407;51.830;5.684;2023-07-20T03:17:54;19.80;71.20
42755;DHT22;28407;51.830;5.684;2023-07-20T03:19:54;19.80;71.20
42755;DHT22;28407;51.830;5.684;2023-07-20T03:21:55;19.80;71.10
42755;DHT22;28407;51.830;5.684;2023-07-20T03:23:56;19.80;71.10
42755;DHT22;28407;51.830;5.684;2023-07-20T03:25:57;19.70;71.10
42755;DHT22;28407;51.830;5.684;2023-07-20T03:27:58;19.70;71.10
42755;DHT22;28407;51.830;5.684;2023-07-20T03:29:59;19.70;71.10
42755;DHT22;28407;51.830;5.684;2023-07-20T03:32:00;19.70;71.10
42755;DHT22;28407;51.830;5.684;2023-07-20T03:34:00;19.60;71.00
42755;DHT22;28407;51.830;5.684;2023-07-20T03:36:01;19.70;71.00
42755;DHT22;28407;51.830;5.684;2023-07-20T03:38:04;19.60;71.30
42755;DHT22;28407;51.830;5.684;2023-07-20T03:40:05;19.60;71.00
42755;DHT22;28407;51.830;5.684;2023-07-20T03:42:08;19.50;70.90
42755;DHT22;28407;51.830;5.684;2023-07-20T03:44:08;19.60;71.00
42755;DHT22;28407;51.830;5.684;2023-07-20T03:46:09;19.50;71.00
42755;DHT22;28407;51.830;5.684;2023-07-20T03:48:10;19.50;71.00
42755;DHT22;28407;51.830;5.684;2023-07-20T03:50:11;19.40;71.10
42755;DHT22;28407;51.830;5.684;2023-07-20T03:52:12;19.40;71.10
42755;DHT22;28407;51.830;5.684;2023-07-20T03:54:12;19.40;71.10
42755;DHT22;28407;51.830;5.684;2023-07-20T03:56:13;19.40;71.20
42755;DHT22;28407;51.830;5.684;2023-07-20T03:58:14;19.30;71.10
42755;DHT22;28407;51.830;5.684;2023-07-20T04:00:15;19.30;71.10
42755;DHT22;28407;51.830;5.684;2023-07-20T04:02:16;19.30;71.20
42755;DHT22;28407;51.830;5.684;2023-07-20T04:04:17;19.30;71.20
42755;DHT22;28407;51.830;5.684;2023-07-20T04:06:18;19.20;71.10
42755;DHT22;28407;51.830;5.684;2023-07-20T04:08:18;19.20;71.20
42755;DHT22;28407;51.830;5.684;2023-07-20T04:10:19;19.20;71.20
42755;DHT22;28407;51.830;5.684;2023-07-20T04:12:20;19.20;71.20
42755;DHT22;28407;51.830;5.684;2023-07-20T04:14:20;19.10;71.20
42755;DHT22;28407;51.830;5.684;2023-07-20T04:16:22;19.20;71.30
42755;DHT22;28407;51.830;5.684;2023-07-20T04:18:23;19.10;71.20
42755;DHT22;28407;51.830;5.684;2023-07-20T04:20:24;19.20;71.20
42755;DHT22;28407;51.830;5.684;2023-07-20T04:22:25;19.10;71.20
42755;DHT22;28407;51.830;5.684;2023-07-20T04:24:27;19.10;71.20
42755;DHT22;28407;51.830;5.684;2023-07-20T04:26:28;19.10;71.10
42755;DHT22;28407;51.830;5.684;2023-07-20T04:28:29;19.10;71.10
42755;DHT22;28407;51.830;5.684;2023-07-20T04:30:29;19.10;71.10
42755;DHT22;28407;51.830;5.684;2023-07-20T04:32:33;19.10;71.20
42755;DHT22;28407;51.830;5.684;2023-07-20T04:34:35;19.10;71.20
42755;DHT22;28407;51.830;5.684;2023-07-20T04:36:37;19.10;71.20
42755;DHT22;28407;51.830;5.684;2023-07-20T04:38:39;19.10;71.20
42755;DHT22;28407;51.830;5.684;2023-07-20T04:40:50;19.10;71.30
42755;DHT22;28407;51.830;5.684;2023-07-20T04:42:51;19.10;71.30
42755;DHT22;28407;51.830;5.684;2023-07-20T04:44:52;19.10;71.30
42755;DHT22;28407;51.830;5.684;2023-07-20T04:46:53;19.10;71.30
42755;DHT22;28407;51.830;5.684;2023-07-20T04:48:54;19.10;71.40
42755;DHT22;28407;51.830;5.684;2023-07-20T04:50:54;19.10;71.40
42755;DHT22;28407;51.830;5.684;2023-07-20T04:52:56;19.10;71.40
42755;DHT22;28407;51.830;5.684;2023-07-20T04:54:57;19.10;71.40
42755;DHT22;28407;51.830;5.684;2023-07-20T04:56:58;19.10;71.40
42755;DHT22;28407;51.830;5.684;2023-07-20T04:58:59;19.10;71.50
42755;DHT22;28407;51.830;5.684;2023-07-20T05:00:59;19.10;71.50
42755;DHT22;28407;51.830;5.684;2023-07-20T05:03:00;19.10;71.50
42755;DHT22;28407;51.830;5.684;2023-07-20T05:05:01;19.20;71.60
42755;DHT22;28407;51.830;5.684;2023-07-20T05:07:02;19.20;71.60
42755;DHT22;28407;51.830;5.684;2023-07-20T05:09:03;19.20;71.60
42755;DHT22;28407;51.830;5.684;2023-07-20T05:11:03;19.20;71.70
42755;DHT22;28407;51.830;5.684;2023-07-20T05:13:04;19.20;71.70
42755;DHT22;28407;51.830;5.684;2023-07-20T05:15:05;19.20;71.70
42755;DHT22;28407;51.830;5.684;2023-07-20T05:17:06;19.20;71.70
42755;DHT22;28407;51.830;5.684;2023-07-20T05:19:07;19.20;71.80
42755;DHT22;28407;51.830;5.684;2023-07-20T05:21:08;19.20;71.80
42755;DHT22;28407;51.830;5.684;2023-07-20T05:23:08;19.20;71.80
42755;DHT22;28407;51.830;5.684;2023-07-20T05:25:10;19.20;71.80
42755;DHT22;28407;51.830;5.684;2023-07-20T05:27:11;19.20;71.90
42755;DHT22;28407;51.830;5.684;2023-07-20T05:29:12;19.20;71.90
42755;DHT22;28407;51.830;5.684;2023-07-20T05:31:13;19.20;71.90
42755;DHT22;28407;51.830;5.684;2023-07-20T05:33:14;19.30;72.00
42755;DHT22;28407;51.830;5.684;2023-07-20T05:35:14;19.20;72.00
42755;DHT22;28407;51.830;5.684;2023-07-20T05:37:17;19.30;72.10
42755;DHT22;28407;51.830;5.684;2023-07-20T05:39:18;19.30;72.10
42755;DHT22;28407;51.830;5.684;2023-07-20T05:41:18;19.30;72.10
42755;DHT22;28407;51.830;5.684;2023-07-20T05:43:19;19.30;72.10
42755;DHT22;28407;51.830;5.684;2023-07-20T05:45:20;19.30;72.10
42755;DHT22;28407;51.830;5.684;2023-07-20T05:47:20;19.30;72.10
42755;DHT22;28407;51.830;5.684;2023-07-20T05:49:21;19.30;72.20
42755;DHT22;28407;51.830;5.684;2023-07-20T05:51:22;19.30;72.20
42755;DHT22;28407;51.830;5.684;2023-07-20T05:53:22;19.30;72.20
42755;DHT22;28407;51.830;5.684;2023-07-20T05:55:23;19.30;72.20
42755;DHT22;28407;51.830;5.684;2023-07-20T05:57:24;19.30;72.20
42755;DHT22;28407;51.830;5.684;2023-07-20T05:59:24;19.30;72.10
42755;DHT22;28407;51.830;5.684;2023-07-20T06:01:25;19.40;72.20
42755;DHT22;28407;51.830;5.684;2023-07-20T06:03:28;19.40;72.20
42755;DHT22;28407;51.830;5.684;2023-07-20T06:05:30;19.40;72.30
42755;DHT22;28407;51.830;5.684;2023-07-20T06:07:31;19.40;72.20
42755;DHT22;28407;51.830;5.684;2023-07-20T06:09:32;19.40;72.20
42755;DHT22;28407;51.830;5.684;2023-07-20T06:11:32;19.40;72.20
42755;DHT22;28407;51.830;5.684;2023-07-20T06:13:33;19.50;72.20
42755;DHT22;28407;51.830;5.684;2023-07-20T06:15:34;19.50;72.20
42755;DHT22;28407;51.830;5.684;2023-07-20T06:17:39;19.50;72.10
42755;DHT22;28407;51.830;5.684;2023-07-20T06:19:40;19.60;72.20
42755;DHT22;28407;51.830;5.684;2023-07-20T06:21:40;19.60;72.80
42755;DHT22;28407;51.830;5.684;2023-07-20T06:23:41;19.60;72.20
42755;DHT22;28407;51.830;5.684;2023-07-20T06:25:42;19.60;72.10
42755;DHT22;28407;51.830;5.684;2023-07-20T06:27:43;19.60;72.00
42755;DHT22;28407;51.830;5.684;2023-07-20T06:29:44;19.70;72.00
42755;DHT22;28407;51.830;5.684;2023-07-20T06:31:45;19.70;71.90
42755;DHT22;28407;51.830;5.684;2023-07-20T06:33:46;19.70;71.90
42755;DHT22;28407;51.830;5.684;2023-07-20T06:35:46;19.70;71.80
42755;DHT22;28407;51.830;5.684;2023-07-20T06:37:47;19.70;71.80
42755;DHT22;28407;51.830;5.684;2023-07-20T06:39:48;19.70;71.70
42755;DHT22;28407;51.830;5.684;2023-07-20T06:41:49;19.80;71.70
42755;DHT22;28407;51.830;5.684;2023-07-20T06:43:52;19.80;71.70
42755;DHT22;28407;51.830;5.684;2023-07-20T06:45:58;19.80;71.60
42755;DHT22;28407;51.830;5.684;2023-07-20T06:47:58;19.80;71.50
42755;DHT22;28407;51.830;5.684;2023-07-20T06:49:59;19.80;71.40
42755;DHT22;28407;51.830;5.684;2023-07-20T06:52:00;19.80;71.30
42755;DHT22;28407;51.830;5.684;2023-07-20T06:54:01;19.80;71.90
42755;DHT22;28407;51.830;5.684;2023-07-20T06:56:02;19.80;71.10
42755;DHT22;28407;51.830;5.684;2023-07-20T06:58:02;19.90;71.10
42755;DHT22;28407;51.830;5.684;2023-07-20T07:00:04;19.80;70.90
42755;DHT22;28407;51.830;5.684;2023-07-20T07:02:05;19.90;70.80
42755;DHT22;28407;51.830;5.684;2023-07-20T07:04:06;19.90;70.70
42755;DHT22;28407;51.830;5.684;2023-07-20T07:06:07;19.90;70.70
42755;DHT22;28407;51.830;5.684;2023-07-20T07:08:07;19.90;70.70
42755;DHT22;28407;51.830;5.684;2023-07-20T07:10:08;19.90;71.30
42755;DHT22;28407;51.830;5.684;2023-07-20T07:12:09;19.90;70.50
42755;DHT22;28407;51.830;5.684;2023-07-20T07:14:09;20.00;70.30
42755;DHT22;28407;51.830;5.684;2023-07-20T07:16:10;20.00;70.10
42755;DHT22;28407;51.830;5.684;2023-07-20T07:18:11;20.00;69.70
42755;DHT22;28407;51.830;5.684;2023-07-20T07:20:12;20.00;69.50
42755;DHT22;28407;51.830;5.684;2023-07-20T07:22:13;20.00;69.40
42755;DHT22;28407;51.830;5.684;2023-07-20T07:24:14;20.00;69.40
42755;DHT22;28407;51.830;5.684;2023-07-20T07:26:15;20.00;69.40
42755;DHT22;28407;51.830;5.684;2023-07-20T07:28:15;20.00;69.40
42755;DHT22;28407;51.830;5.684;2023-07-20T07:30:16;20.10;69.40
42755;DHT22;28407;51.830;5.684;2023-07-20T07:32:17;20.10;69.40
42755;DHT22;28407;51.830;5.684;2023-07-20T07:34:18;20.10;69.40
42755;DHT22;28407;51.830;5.684;2023-07-20T07:36:18;20.20;69.40
42755;DHT22;28407;51.830;5.684;2023-07-20T07:38:20;20.20;69.40
42755;DHT22;28407;51.830;5.684;2023-07-20T07:40:21;20.20;69.30
42755;DHT22;28407;51.830;5.684;2023-07-20T07:42:22;20.20;69.30
42755;DHT22;28407;51.830;5.684;2023-07-20T07:44:23;20.20;69.40
42755;DHT22;28407;51.830;5.684;2023-07-20T07:46:24;20.20;69.40
42755;DHT22;28407;51.830;5.684;2023-07-20T07:48:24;20.20;69.40
42755;DHT22;28407;51.830;5.684;2023-07-20T07:50:25;20.20;69.40
42755;DHT22;28407;51.830;5.684;2023-07-20T07:52:27;20.30;69.30
42755;DHT22;28407;51.830;5.684;2023-07-20T07:54:28;20.40;69.30
42755;DHT22;28407;51.830;5.684;2023-07-20T07:56:29;20.40;69.10
42755;DHT22;28407;51.830;5.684;2023-07-20T07:58:30;20.40;68.80
42755;DHT22;28407;51.830;5.684;2023-07-20T08:00:31;20.50;68.80
42755;DHT22;28407;51.830;5.684;2023-07-20T08:02:32;20.40;68.70
42755;DHT22;28407;51.830;5.684;2023-07-20T08:04:33;20.40;68.60
42755;DHT22;28407;51.830;5.684;2023-07-20T08:06:33;20.40;68.60
42755;DHT22;28407;51.830;5.684;2023-07-20T08:08:34;20.40;68.50
42755;DHT22;28407;51.830;5.684;2023-07-20T08:10:35;20.40;68.40
42755;DHT22;28407;51.830;5.684;2023-07-20T08:12:36;20.40;68.20
42755;DHT22;28407;51.830;5.684;2023-07-20T08:14:36;20.40;68.00
42755;DHT22;28407;51.830;5.684;2023-07-20T08:16:37;20.40;67.80
42755;DHT22;28407;51.830;5.684;2023-07-20T08:18:38;20.50;67.50
42755;DHT22;28407;51.830;5.684;2023-07-20T08:20:38;20.50;67.40
42755;DHT22;28407;51.830;5.684;2023-07-20T08:22:39;20.50;67.20
42755;DHT22;28407;51.830;5.684;2023-07-20T08:24:40;20.50;67.10
42755;DHT22;28407;51.830;5.684;2023-07-20T08:26:41;20.60;66.90
42755;DHT22;28407;51.830;5.684;2023-07-20T08:28:44;20.70;66.70
42755;DHT22;28407;51.830;5.684;2023-07-20T08:30:46;20.70;66.30
42755;DHT22;28407;51.830;5.684;2023-07-20T08:32:47;20.70;66.20
42755;DHT22;28407;51.830;5.684;2023-07-20T08:34:48;20.70;66.10
42755;DHT22;28407;51.830;5.684;2023-07-20T08:36:48;20.70;65.90
42755;DHT22;28407;51.830;5.684;2023-07-20T08:38:49;20.80;65.80
42755;DHT22;28407;51.830;5.684;2023-07-20T08:40:51;20.80;65.60
42755;DHT22;28407;51.830;5.684;2023-07-20T08:42:54;20.80;65.30
42755;DHT22;28407;51.830;5.684;2023-07-20T08:44:56;20.80;65.10
42755;DHT22;28407;51.830;5.684;2023-07-20T08:46:58;20.90;65.00
42755;DHT22;28407;51.830;5.684;2023-07-20T08:49:00;20.90;64.90
42755;DHT22;28407;51.830;5.684;2023-07-20T08:51:04;20.90;64.70
42755;DHT22;28407;51.830;5.684;2023-07-20T08:53:05;21.00;64.50
42755;DHT22;28407;51.830;5.684;2023-07-20T08:55:07;21.00;64.30
42755;DHT22;28407;51.830;5.684;2023-07-20T08:57:08;21.10;64.20
42755;DHT22;28407;51.830;5.684;2023-07-20T08:59:13;21.10;64.00
42755;DHT22;28407;51.830;5.684;2023-07-20T09:01:17;21.20;63.80
42755;DHT22;28407;51.830;5.684;2023-07-20T09:03:18;21.30;63.70
42755;DHT22;28407;51.830;5.684;2023-07-20T09:05:21;21.40;64.20
42755;DHT22;28407;51.830;5.684;2023-07-20T09:07:24;21.40;63.20
42755;DHT22;28407;51.830;5.684;2023-07-20T09:09:25;21.50;63.10
42755;DHT22;28407;51.830;5.684;2023-07-20T09:11:26;21.50;63.00
42755;DHT22;28407;51.830;5.684;2023-07-20T09:13:26;21.50;62.90
42755;DHT22;28407;51.830;5.684;2023-07-20T09:15:29;21.60;63.00
42755;DHT22;28407;51.830;5.684;2023-07-20T09:17:30;21.60;62.90
42755;DHT22;28407;51.830;5.684;2023-07-20T09:19:30;21.60;62.90
42755;DHT22;28407;51.830;5.684;2023-07-20T09:21:31;21.60;62.90
42755;DHT22;28407;51.830;5.684;2023-07-20T09:23:38;21.60;63.40
42755;DHT22;28407;51.830;5.684;2023-07-20T09:25:42;21.60;62.70
42755;DHT22;28407;51.830;5.684;2023-07-20T09:27:45;21.70;62.70
42755;DHT22;28407;51.830;5.684;2023-07-20T09:29:49;21.70;62.50
42755;DHT22;28407;51.830;5.684;2023-07-20T09:32:00;21.80;63.10
42755;DHT22;28407;51.830;5.684;2023-07-20T09:34:05;21.80;62.20
42755;DHT22;28407;51.830;5.684;2023-07-20T09:36:05;21.80;62.00
42755;DHT22;28407;51.830;5.684;2023-07-20T09:38:06;21.80;61.70
42755;DHT22;28407;51.830;5.684;2023-07-20T09:40:09;21.80;61.60
42755;DHT22;28407;51.830;5.684;2023-07-20T09:42:11;21.80;61.60
42755;DHT22;28407;51.830;5.684;2023-07-20T09:44:16;21.80;61.60
42755;DHT22;28407;51.830;5.684;2023-07-20T09:46:17;21.90;61.50
42755;DHT22;28407;51.830;5.684;2023-07-20T09:48:24;21.90;61.40
42755;DHT22;28407;51.830;5.684;2023-07-20T09:50:25;21.90;61.20
42755;DHT22;28407;51.830;5.684;2023-07-20T09:52:26;22.00;61.20
42755;DHT22;28407;51.830;5.684;2023-07-20T09:54:27;22.00;61.10
42755;DHT22;28407;51.830;5.684;2023-07-20T09:56:30;22.10;61.00
42755;DHT22;28407;51.830;5.684;2023-07-20T09:58:31;22.10;60.70
42755;DHT22;28407;51.830;5.684;2023-07-20T10:00:32;22.20;60.60
42755;DHT22;28407;51.830;5.684;2023-07-20T10:02:37;22.20;60.50
42755;DHT22;28407;51.830;5.684;2023-07-20T10:04:42;22.30;60.40
42755;DHT22;28407;51.830;5.684;2023-07-20T10:06:47;22.30;60.30
42755;DHT22;28407;51.830;5.684;2023-07-20T10:08:49;22.30;60.20
42755;DHT22;28407;51.830;5.684;2023-07-20T10:10:52;22.30;60.00
42755;DHT22;28407;51.830;5.684;2023-07-20T10:12:53;22.40;60.00
42755;DHT22;28407;51.830;5.684;2023-07-20T10:15:09;22.40;60.00
42755;DHT22;28407;51.830;5.684;2023-07-20T10:17:12;22.50;59.80
42755;DHT22;28407;51.830;5.684;2023-07-20T10:19:22;22.60;59.60
42755;DHT22;28407;51.830;5.684;2023-07-20T10:21:25;22.60;59.30
42755;DHT22;28407;51.830;5.684;2023-07-20T10:23:28;22.70;59.10
42755;DHT22;28407;51.830;5.684;2023-07-20T10:25:29;22.70;58.80
42755;DHT22;28407;51.830;5.684;2023-07-20T10:27:30;22.70;58.70
42755;DHT22;28407;51.830;5.684;2023-07-20T10:29:31;22.80;58.70
42755;DHT22;28407;51.830;5.684;2023-07-20T10:31:34;22.80;58.70
42755;DHT22;28407;51.830;5.684;2023-07-20T10:33:35;22.80;58.60
42755;DHT22;28407;51.830;5.684;2023-07-20T10:36:02;22.80;58.60
42755;DHT22;28407;51.830;5.684;2023-07-20T10:38:04;22.80;58.60
42755;DHT22;28407;51.830;5.684;2023-07-20T10:40:24;22.90;58.70
42755;DHT22;28407;51.830;5.684;2023-07-20T10:42:33;23.00;58.50
42755;DHT22;28407;51.830;5.684;2023-07-20T10:44:34;23.00;58.40
42755;DHT22;28407;51.830;5.684;2023-07-20T10:46:46;23.00;58.20
42755;DHT22;28407;51.830;5.684;2023-07-20T10:49:00;23.10;58.10
42755;DHT22;28407;51.830;5.684;2023-07-20T10:51:20;23.20;58.00
42755;DHT22;28407;51.830;5.684;2023-07-20T10:53:21;23.30;57.70
42755;DHT22;28407;51.830;5.684;2023-07-20T10:55:21;23.30;57.50
42755;DHT22;28407;51.830;5.684;2023-07-20T10:57:30;23.40;57.40
42755;DHT22;28407;51.830;5.684;2023-07-20T11:01:36;23.40;57.20
42755;DHT22;28407;51.830;5.684;2023-07-20T11:03:38;23.50;57.10
42755;DHT22;28407;51.830;5.684;2023-07-20T11:05:40;23.60;57.00
42755;DHT22;28407;51.830;5.684;2023-07-20T11:07:41;23.60;56.80
42755;DHT22;28407;51.830;5.684;2023-07-20T11:09:41;23.70;56.70
42755;DHT22;28407;51.830;5.684;2023-07-20T11:11:47;23.80;56.40
42755;DHT22;28407;51.830;5.684;2023-07-20T11:18:11;24.10;55.60
42755;DHT22;28407;51.830;5.684;2023-07-20T11:20:13;24.20;55.10
42755;DHT22;28407;51.830;5.684;2023-07-20T11:22:17;24.30;55.60
42755;DHT22;28407;51.830;5.684;2023-07-20T11:24:18;24.40;54.80
42755;DHT22;28407;51.830;5.684;2023-07-20T11:26:19;24.50;54.50
42755;DHT22;28407;51.830;5.684;2023-07-20T11:28:20;24.70;54.30
42755;DHT22;28407;51.830;5.684;2023-07-20T11:30:21;24.80;54.10
42755;DHT22;28407;51.830;5.684;2023-07-20T11:32:22;24.90;54.00
42755;DHT22;28407;51.830;5.684;2023-07-20T11:34:23;25.00;53.90
42755;DHT22;28407;51.830;5.684;2023-07-20T11:36:24;25.10;53.60
42755;DHT22;28407;51.830;5.684;2023-07-20T11:38:24;25.20;53.40
42755;DHT22;28407;51.830;5.684;2023-07-20T11:40:25;25.10;53.30
42755;DHT22;28407;51.830;5.684;2023-07-20T11:42:26;25.20;53.40
42755;DHT22;28407;51.830;5.684;2023-07-20T11:44:28;25.30;53.20
42755;DHT22;28407;51.830;5.684;2023-07-20T11:46:29;25.40;52.90
42755;DHT22;28407;51.830;5.684;2023-07-20T11:48:30;25.60;52.70
42755;DHT22;28407;51.830;5.684;2023-07-20T11:50:30;25.70;52.40
42755;DHT22;28407;51.830;5.684;2023-07-20T11:52:31;25.80;52.10
42755;DHT22;28407;51.830;5.684;2023-07-20T11:54:33;25.90;51.90
42755;DHT22;28407;51.830;5.684;2023-07-20T11:56:34;26.00;51.60
42755;DHT22;28407;51.830;5.684;2023-07-20T11:58:35;26.20;51.30
42755;DHT22;28407;51.830;5.684;2023-07-20T12:00:38;26.30;51.00
42755;DHT22;28407;51.830;5.684;2023-07-20T12:02:39;26.50;50.90
42755;DHT22;28407;51.830;5.684;2023-07-20T12:04:41;26.50;51.20
42755;DHT22;28407;51.830;5.684;2023-07-20T12:06:42;26.60;50.30
42755;DHT22;28407;51.830;5.684;2023-07-20T12:08:43;26.60;50.30
42755;DHT22;28407;51.830;5.684;2023-07-20T12:10:45;26.50;50.30
42755;DHT22;28407;51.830;5.684;2023-07-20T12:12:47;26.60;50.20
42755;DHT22;28407;51.830;5.684;2023-07-20T12:14:47;26.60;50.10
42755;DHT22;28407;51.830;5.684;2023-07-20T12:16:53;26.70;50.00
42755;DHT22;28407;51.830;5.684;2023-07-20T12:19:15;26.80;50.00
42755;DHT22;28407;51.830;5.684;2023-07-20T12:21:16;26.80;49.80
42755;DHT22;28407;51.830;5.684;2023-07-20T12:23:19;26.90;49.90
42755;DHT22;28407;51.830;5.684;2023-07-20T12:25:20;27.00;49.70
42755;DHT22;28407;51.830;5.684;2023-07-20T12:27:21;27.00;49.50
42755;DHT22;28407;51.830;5.684;2023-07-20T12:29:22;27.10;49.20
42755;DHT22;28407;51.830;5.684;2023-07-20T12:31:23;27.10;49.10
42755;DHT22;28407;51.830;5.684;2023-07-20T12:33:24;27.20;49.00
42755;DHT22;28407;51.830;5.684;2023-07-20T12:35:25;27.30;49.40
42755;DHT22;28407;51.830;5.684;2023-07-20T12:37:26;27.30;48.60
42755;DHT22;28407;51.830;5.684;2023-07-20T12:39:27;27.50;48.50
42755;DHT22;28407;51.830;5.684;2023-07-20T12:41:28;27.60;48.30
42755;DHT22;28407;51.830;5.684;2023-07-20T12:43:29;27.50;48.20
42755;DHT22;28407;51.830;5.684;2023-07-20T12:45:30;27.50;48.20
42755;DHT22;28407;51.830;5.684;2023-07-20T12:47:31;27.50;48.20
42755;DHT22;28407;51.830;5.684;2023-07-20T12:49:31;27.50;48.60
42755;DHT22;28407;51.830;5.684;2023-07-20T12:51:32;27.50;48.60
42755;DHT22;28407;51.830;5.684;2023-07-20T12:53:33;27.50;48.00
42755;DHT22;28407;51.830;5.684;2023-07-20T12:55:34;27.50;47.90
42755;DHT22;28407;51.830;5.684;2023-07-20T12:57:35;27.40;48.00
42755;DHT22;28407;51.830;5.684;2023-07-20T12:59:36;27.30;48.10
42755;DHT22;28407;51.830;5.684;2023-07-20T13:01:36;27.30;48.10